createdAt,value
2023-02-11T00:00:56.488Z,12.20
2023-02-11T00:03:26.340Z,11.40
2023-02-11T00:06:08.707Z,11.40
2023-02-11T00:08:39.665Z,12.80
2023-02-11T00:11:14.500Z,11.65
2023-02-11T00:13:45.452Z,14.00
2023-02-11T00:16:21.376Z,11.52
2023-02-11T00:18:49.163Z,11.38
2023-02-11T00:21:24.742Z,11.60
2023-02-11T00:23:58.726Z,11.25
2023-02-11T00:26:32.831Z,13.80
2023-02-11T00:29:00.777Z,12.25
2023-02-11T00:31:33.661Z,11.15
2023-02-11T00:34:00.783Z,14.87
2023-02-11T00:36:36.526Z,10.57
2023-02-11T00:39:10.366Z,12.30
2023-02-11T00:41:37.699Z,11.38
2023-02-11T00:44:05.195Z,11.32
2023-02-11T00:46:35.560Z,10.88
2023-02-11T00:49:06.156Z,11.90
2023-02-11T00:51:33.259Z,10.70
2023-02-11T00:54:01.259Z,11.25
2023-02-11T00:56:28.409Z,11.05
2023-02-11T00:58:55.674Z,11.12
2023-02-11T01:01:22.778Z,11.93
2023-02-11T01:03:53.194Z,13.80
2023-02-11T01:06:23.949Z,10.73
2023-02-11T01:08:51.000Z,10.75
2023-02-11T01:11:22.600Z,10.57
2023-02-11T01:13:50.979Z,10.95
2023-02-11T01:16:22.784Z,9.65
2023-02-11T01:18:50.300Z,10.55
2023-02-11T01:21:18.109Z,10.73
2023-02-11T01:24:05.203Z,12.13
2023-02-11T01:26:32.365Z,10.68
2023-02-11T01:29:36.877Z,13.05
2023-02-11T01:32:09.429Z,11.02
2023-02-11T01:34:36.843Z,12.07
2023-02-11T01:37:08.001Z,11.07
2023-02-11T01:39:40.767Z,10.52
2023-02-11T01:42:13.296Z,11.02
2023-02-11T01:44:43.640Z,11.38
2023-02-11T01:47:16.414Z,10.07
2023-02-11T01:50:07.714Z,9.98
2023-02-11T01:52:42.154Z,10.40
2023-02-11T01:55:13.393Z,9.95
2023-02-11T01:58:05.541Z,11.48
2023-02-11T02:00:40.150Z,10.10
2023-02-11T02:03:18.148Z,10.93
2023-02-11T02:06:06.444Z,10.02
2023-02-11T02:08:59.791Z,11.12
2023-02-11T02:11:29.980Z,10.00
2023-02-11T02:14:04.304Z,9.98
2023-02-11T02:16:35.425Z,10.95
2023-02-11T02:19:27.533Z,10.82
2023-02-11T02:22:19.848Z,11.05
2023-02-11T02:25:08.121Z,11.35
2023-02-11T02:34:31.639Z,9.90
2023-02-11T02:37:40.641Z,10.30
2023-02-11T02:40:41.404Z,10.30
2023-02-11T02:43:46.804Z,10.77
2023-02-11T02:46:54.694Z,12.30
2023-02-11T02:49:29.723Z,10.38
2023-02-11T02:52:07.080Z,11.35
2023-02-11T02:58:33.234Z,9.52
2023-02-11T03:01:54.924Z,10.45
2023-02-11T03:10:56.953Z,11.35
2023-02-11T03:13:32.622Z,11.12
2023-02-11T03:16:07.388Z,10.38
2023-02-11T03:18:43.433Z,11.90
2023-02-11T03:21:18.269Z,10.43
2023-02-11T03:27:44.795Z,10.35
2023-02-11T03:30:35.733Z,10.23
2023-02-11T03:33:40.378Z,11.27
2023-02-11T03:40:03.058Z,11.98
2023-02-11T03:42:39.133Z,10.25
2023-02-11T03:45:11.148Z,10.38
2023-02-11T03:54:36.805Z,9.77
2023-02-11T03:57:07.991Z,12.85
2023-02-11T04:00:01.414Z,11.65
2023-02-11T04:02:32.517Z,11.32
2023-02-11T04:08:34.917Z,9.68
2023-02-11T04:11:24.136Z,11.75
2023-02-11T04:14:13.976Z,9.93
2023-02-11T04:26:33.829Z,10.10
2023-02-11T04:32:22.763Z,10.10
2023-02-11T04:34:55.491Z,10.70
2023-02-11T04:37:26.437Z,10.15
2023-02-11T04:40:08.710Z,10.82
2023-02-11T04:45:57.689Z,12.10
2023-02-11T04:48:31.471Z,11.00
2023-02-11T04:51:17.417Z,10.50
2023-02-11T04:53:44.798Z,11.55
2023-02-11T04:56:12.243Z,11.73
2023-02-11T04:58:42.998Z,14.25
2023-02-11T05:01:12.510Z,11.88
2023-02-11T05:03:46.618Z,11.45
2023-02-11T05:06:18.460Z,10.07
2023-02-11T05:08:51.852Z,12.80
2023-02-11T05:14:34.724Z,10.48
2023-02-11T05:17:21.621Z,11.23
2023-02-11T05:19:50.028Z,11.70
2023-02-11T05:22:22.192Z,16.40
2023-02-11T05:24:50.733Z,27.30
2023-02-11T05:27:18.274Z,24.70
2023-02-11T05:29:50.414Z,26.77
2023-02-11T05:32:17.627Z,31.03
2023-02-11T05:34:49.576Z,26.92
2023-02-11T05:37:38.888Z,25.98
2023-02-11T05:40:07.124Z,23.38
2023-02-11T05:42:34.320Z,24.85
2023-02-11T05:45:08.397Z,24.85
2023-02-11T05:47:39.218Z,18.08
2023-02-11T05:50:10.054Z,20.17
2023-02-11T05:52:42.845Z,16.27
2023-02-11T05:55:10.506Z,17.08
2023-02-11T05:57:41.532Z,15.50
2023-02-11T06:00:16.047Z,16.27
2023-02-11T06:02:47.257Z,15.85
2023-02-11T06:05:17.988Z,16.12
2023-02-11T06:07:45.542Z,15.35
2023-02-11T06:10:13.185Z,15.45
2023-02-11T06:12:41.488Z,14.68
2023-02-11T06:15:09.436Z,22.98
2023-02-11T06:17:41.121Z,20.60
2023-02-11T06:20:10.696Z,17.30
2023-02-11T06:22:38.553Z,18.50
2023-02-11T06:25:12.436Z,16.02
2023-02-11T06:27:45.840Z,16.52
2023-02-11T06:30:17.384Z,14.40
2023-02-11T06:32:48.835Z,16.25
2023-02-11T06:35:15.846Z,15.65
2023-02-11T06:37:43.397Z,31.67
2023-02-11T06:40:12.259Z,15.75
2023-02-11T06:42:39.624Z,19.02
2023-02-11T06:45:08.845Z,22.33
2023-02-11T06:47:37.729Z,14.27
2023-02-11T06:50:04.697Z,16.50
2023-02-11T06:52:36.088Z,25.30
2023-02-11T06:55:02.779Z,17.95
2023-02-11T06:57:31.128Z,20.05
2023-02-11T06:59:58.385Z,24.45
2023-02-11T07:02:25.590Z,21.87
2023-02-11T07:04:56.021Z,20.55
2023-02-11T07:07:22.712Z,21.58
2023-02-11T07:09:55.126Z,22.60
2023-02-11T07:12:24.747Z,24.67
2023-02-11T07:14:51.927Z,27.15
2023-02-11T07:17:22.100Z,39.15
2023-02-11T07:19:49.601Z,42.30
2023-02-11T07:22:16.467Z,51.60
2023-02-11T07:24:46.393Z,46.72
2023-02-11T07:27:16.219Z,62.13
2023-02-11T07:29:45.792Z,58.67
2023-02-11T07:32:15.530Z,64.87
2023-02-11T07:34:45.634Z,63.87
2023-02-11T07:37:15.655Z,71.45
2023-02-11T07:39:45.710Z,60.95
2023-02-11T07:42:15.243Z,53.50
2023-02-11T07:44:44.987Z,54.80
2023-02-11T07:49:57.852Z,54.83
2023-02-11T07:52:25.026Z,52.38
2023-02-11T07:57:30.803Z,53.40
2023-02-11T08:00:00.302Z,47.42
2023-02-11T08:02:30.054Z,54.78
2023-02-11T08:05:01.009Z,45.75
2023-02-11T08:07:28.682Z,58.22
2023-02-11T08:10:02.119Z,46.88
2023-02-11T08:12:28.906Z,48.53
2023-02-11T08:14:55.723Z,44.78
2023-02-11T08:17:23.019Z,48.05
2023-02-11T08:19:50.649Z,44.85
2023-02-11T08:22:20.611Z,46.83
2023-02-11T08:24:49.171Z,44.20
2023-02-11T08:27:23.607Z,44.58
2023-02-11T08:29:54.883Z,43.00
2023-02-11T08:32:26.551Z,43.85
2023-02-11T08:34:54.126Z,49.22
2023-02-11T08:37:22.025Z,40.55
2023-02-11T08:39:54.997Z,55.83
2023-02-11T08:42:22.035Z,55.22
2023-02-11T08:44:48.978Z,54.80
2023-02-11T08:47:19.114Z,60.28
2023-02-11T08:49:49.287Z,61.35
2023-02-11T08:52:19.726Z,48.50
2023-02-11T08:54:46.566Z,56.50
2023-02-11T08:57:16.522Z,48.65
2023-02-11T08:59:46.799Z,47.30
2023-02-11T09:02:14.704Z,48.95
2023-02-11T09:04:42.018Z,50.42
2023-02-11T09:07:08.722Z,47.85
2023-02-11T09:09:35.818Z,49.63
2023-02-11T09:12:06.514Z,48.97
2023-02-11T09:14:34.554Z,46.85
2023-02-11T09:17:01.976Z,51.70
2023-02-11T09:19:29.494Z,44.97
2023-02-11T09:22:00.107Z,46.42
2023-02-11T09:24:30.466Z,48.17
2023-02-11T09:27:01.162Z,47.30
2023-02-11T09:29:28.365Z,54.83
2023-02-11T09:31:58.728Z,52.13
2023-02-11T09:34:28.656Z,46.58
2023-02-11T09:36:55.885Z,40.53
2023-02-11T09:39:23.824Z,47.78
2023-02-11T09:42:20.578Z,44.58
2023-02-11T09:44:48.483Z,38.88
2023-02-11T09:50:44.724Z,41.92
2023-02-11T09:53:39.276Z,42.60
2023-02-11T09:56:13.137Z,44.25
2023-02-11T09:58:43.255Z,40.45
2023-02-11T10:01:45.623Z,44.20
2023-02-11T10:13:37.478Z,38.53
2023-02-11T10:16:26.725Z,44.05
2023-02-11T10:19:21.941Z,44.55
2023-02-11T10:22:15.131Z,45.58
2023-02-11T10:24:52.489Z,40.65
2023-02-11T10:27:23.681Z,45.80
2023-02-11T10:30:16.967Z,42.20
2023-02-11T10:33:07.307Z,38.85
2023-02-11T10:35:33.990Z,38.85
2023-02-11T10:38:01.089Z,51.10
2023-02-11T10:40:30.414Z,44.25
2023-02-11T10:43:22.773Z,33.65
2023-02-11T10:45:56.104Z,52.25
2023-02-11T10:48:47.177Z,36.30
2023-02-11T10:51:14.741Z,41.45
2023-02-11T10:53:46.821Z,43.87
2023-02-11T10:56:47.994Z,37.37
2023-02-11T10:59:34.840Z,37.35
2023-02-11T11:02:27.929Z,35.67
2023-02-11T11:05:20.101Z,39.85
2023-02-11T11:08:13.406Z,39.03
2023-02-11T11:10:44.611Z,39.42
2023-02-11T11:13:36.029Z,34.80
2023-02-11T11:16:12.862Z,31.87
2023-02-11T11:18:41.715Z,36.65
2023-02-11T11:21:16.816Z,36.05
2023-02-11T11:23:55.467Z,31.25
2023-02-11T11:26:23.048Z,34.55
2023-02-11T11:28:52.501Z,33.92
2023-02-11T11:31:24.339Z,32.20
2023-02-11T11:33:55.752Z,40.20
2023-02-11T11:36:31.299Z,35.65
2023-02-11T11:39:03.729Z,35.38
2023-02-11T11:41:36.334Z,35.53
2023-02-11T11:44:41.856Z,37.35
2023-02-11T11:47:11.936Z,37.92
2023-02-11T11:49:56.567Z,36.55
2023-02-11T11:52:32.908Z,34.80
2023-02-11T11:55:18.608Z,32.90
2023-02-11T11:57:45.576Z,32.15
2023-02-11T12:00:24.277Z,34.42
2023-02-11T12:03:16.126Z,34.88
2023-02-11T12:05:50.221Z,35.78
2023-02-11T12:08:22.595Z,36.25
2023-02-11T12:11:05.268Z,32.45
2023-02-11T12:13:36.894Z,30.77
2023-02-11T12:16:33.579Z,35.70
2023-02-11T12:19:10.716Z,28.55
2023-02-11T12:21:51.518Z,33.80
2023-02-11T12:24:49.395Z,30.70
2023-02-11T12:27:39.321Z,28.40
2023-02-11T12:30:41.568Z,29.90
2023-02-11T12:33:29.982Z,31.95
2023-02-11T12:36:05.848Z,29.20
2023-02-11T12:38:57.476Z,28.55
2023-02-11T12:41:37.853Z,30.17
2023-02-11T12:44:16.582Z,28.10
2023-02-11T12:47:24.854Z,27.90
2023-02-11T12:50:24.721Z,29.83
2023-02-11T12:53:06.311Z,29.27
2023-02-11T12:55:48.102Z,31.48
2023-02-11T12:58:27.331Z,32.75
2023-02-11T13:01:11.276Z,29.35
2023-02-11T13:03:46.276Z,26.80
2023-02-11T13:06:17.629Z,28.87
2023-02-11T13:08:58.018Z,26.05
2023-02-11T13:11:27.716Z,26.35
2023-02-11T13:14:14.190Z,24.95
2023-02-11T13:16:47.326Z,27.05
2023-02-11T13:19:44.370Z,28.17
2023-02-11T13:22:20.335Z,25.25
2023-02-11T13:25:06.031Z,25.98
2023-02-11T13:28:15.068Z,23.48
2023-02-11T13:30:42.623Z,25.37
2023-02-11T13:33:37.061Z,26.00
2023-02-11T13:36:07.821Z,29.58
2023-02-11T13:38:40.200Z,27.35
2023-02-11T13:41:33.841Z,27.48
2023-02-11T13:44:12.190Z,28.15
2023-02-11T13:46:56.560Z,25.95
2023-02-11T13:49:38.629Z,24.30
2023-02-11T13:52:18.809Z,26.62
2023-02-11T13:54:51.518Z,24.15
2023-02-11T13:57:24.204Z,29.17
2023-02-11T14:00:03.856Z,23.80
2023-02-11T14:02:40.021Z,29.23
2023-02-11T14:05:16.353Z,27.40
2023-02-11T14:08:06.261Z,27.40
2023-02-11T14:11:04.548Z,26.00
2023-02-11T14:13:56.089Z,25.62
2023-02-11T14:16:37.826Z,24.02
2023-02-11T14:19:10.549Z,22.40
2023-02-11T14:21:43.381Z,22.67
2023-02-11T14:24:13.611Z,24.85
2023-02-11T14:27:00.833Z,26.23
2023-02-11T14:29:54.151Z,31.85
2023-02-11T14:32:43.038Z,26.12
2023-02-11T14:35:25.315Z,24.33
2023-02-11T14:38:01.214Z,24.48
2023-02-11T14:40:49.297Z,26.40
2023-02-11T14:43:36.296Z,23.80
2023-02-11T14:46:10.769Z,24.02
2023-02-11T14:48:45.059Z,24.35
2023-02-11T14:51:20.176Z,21.98
2023-02-11T14:53:50.910Z,26.17
2023-02-11T14:56:29.185Z,25.92
2023-02-11T14:58:59.827Z,22.50
2023-02-11T15:01:41.152Z,21.92
2023-02-11T15:04:26.644Z,23.08
2023-02-11T15:06:55.926Z,26.20
2023-02-11T15:09:40.644Z,23.98
2023-02-11T15:12:27.056Z,20.42
2023-02-11T15:14:56.819Z,21.67
2023-02-11T15:17:26.247Z,24.58
2023-02-11T15:20:00.382Z,24.50
2023-02-11T15:22:36.088Z,21.12
2023-02-11T15:25:14.638Z,21.00
2023-02-11T15:27:47.879Z,21.75
2023-02-11T15:30:24.047Z,22.62
2023-02-11T15:32:59.226Z,22.10
2023-02-11T15:35:39.520Z,26.02
2023-02-11T15:38:11.153Z,22.15
2023-02-11T15:40:52.157Z,22.62
2023-02-11T15:43:40.150Z,23.75
2023-02-11T15:46:14.176Z,22.52
2023-02-11T15:48:48.314Z,20.27
2023-02-11T15:51:21.450Z,24.37
2023-02-11T15:56:22.629Z,18.77
2023-02-11T16:01:17.016Z,23.75
2023-02-11T16:03:50.191Z,23.00
2023-02-11T16:09:21.198Z,19.17
2023-02-11T16:11:50.504Z,19.15
2023-02-11T16:14:27.964Z,21.98
2023-02-11T16:17:35.382Z,20.60
2023-02-11T16:20:02.346Z,19.83
2023-02-11T16:22:31.787Z,21.62
2023-02-11T16:25:02.528Z,21.05
2023-02-11T16:27:34.621Z,25.02
2023-02-11T16:30:01.672Z,23.00
2023-02-11T16:32:35.760Z,20.30
2023-02-11T16:35:11.472Z,20.83
2023-02-11T16:37:42.670Z,21.58
2023-02-11T16:40:13.505Z,25.75
2023-02-11T16:42:43.265Z,23.27
2023-02-11T16:45:18.216Z,27.90
2023-02-11T16:48:32.860Z,36.08
2023-02-11T16:51:00.186Z,33.58
2023-02-11T16:56:47.211Z,34.28
2023-02-11T16:59:16.318Z,25.80
2023-02-11T17:01:44.573Z,27.17
2023-02-11T17:04:31.759Z,26.52
2023-02-11T17:07:37.233Z,31.95
2023-02-11T17:10:08.400Z,30.35
2023-02-11T17:12:36.004Z,22.83
2023-02-11T17:15:19.092Z,29.42
2023-02-11T17:17:55.557Z,25.88
2023-02-11T17:20:22.957Z,23.92
2023-02-11T17:23:00.406Z,28.20
2023-02-11T17:25:32.307Z,29.80
2023-02-11T17:28:06.583Z,22.60
2023-02-11T17:30:40.842Z,26.00
2023-02-11T17:33:23.081Z,20.60
2023-02-11T17:36:19.001Z,21.02
2023-02-11T17:38:47.151Z,21.70
2023-02-11T17:44:50.817Z,24.47
2023-02-11T17:47:31.840Z,22.75
2023-02-11T17:53:45.390Z,18.95
2023-02-11T17:56:15.585Z,18.45
2023-02-11T17:58:46.362Z,25.83
2023-02-11T18:01:20.004Z,19.12
2023-02-11T18:03:49.900Z,18.92
2023-02-11T18:06:54.312Z,19.25
2023-02-11T18:09:22.562Z,20.35
2023-02-11T18:11:50.290Z,26.35
2023-02-11T18:14:21.536Z,19.55
2023-02-11T18:16:55.350Z,23.60
2023-02-11T18:19:22.447Z,21.73
2023-02-11T18:21:49.305Z,26.85
2023-02-11T18:24:21.213Z,19.35
2023-02-11T18:26:50.405Z,22.15
2023-02-11T18:29:17.942Z,17.48
2023-02-11T18:31:48.457Z,24.50
2023-02-11T18:34:20.100Z,17.02
2023-02-11T18:36:47.039Z,18.60
2023-02-11T18:39:13.906Z,17.58
2023-02-11T18:41:43.974Z,14.95
2023-02-11T18:44:12.529Z,18.00
2023-02-11T18:46:45.624Z,20.98
2023-02-11T18:51:46.205Z,18.75
2023-02-11T18:54:13.577Z,14.10
2023-02-11T18:56:42.826Z,15.10
2023-02-11T19:02:31.645Z,26.50
2023-02-11T19:05:01.134Z,16.75
2023-02-11T19:07:34.706Z,17.35
2023-02-11T19:10:13.059Z,16.40
2023-02-11T19:12:42.595Z,16.15
2023-02-11T19:15:12.560Z,18.62
2023-02-11T19:17:50.714Z,19.10
2023-02-11T19:21:02.830Z,22.05
2023-02-11T19:23:32.172Z,22.33
2023-02-11T19:26:03.996Z,18.90
2023-02-11T19:38:58.316Z,19.10
2023-02-11T19:41:45.274Z,18.40
2023-02-11T19:50:38.230Z,19.27
2023-02-11T19:53:27.126Z,16.62
2023-02-11T19:55:56.010Z,17.35
2023-02-11T19:58:28.137Z,18.67
2023-02-11T20:04:12.324Z,16.73
2023-02-11T20:07:01.152Z,17.33
2023-02-11T20:20:05.564Z,17.33
2023-02-11T20:26:01.066Z,16.77
2023-02-11T20:44:18.016Z,13.18
2023-02-11T20:56:27.710Z,16.90
2023-02-11T20:59:36.673Z,15.93
2023-02-11T21:06:03.717Z,15.35
2023-02-11T21:08:51.049Z,14.02
2023-02-11T21:11:40.297Z,13.77
2023-02-11T21:24:41.249Z,13.85
2023-02-11T21:27:47.686Z,14.45
2023-02-11T21:30:54.259Z,13.68
2023-02-11T21:33:52.828Z,17.90
2023-02-11T21:37:00.979Z,12.05
2023-02-11T21:39:37.736Z,14.38
2023-02-11T21:42:09.652Z,12.10
2023-02-11T21:44:38.536Z,13.27
2023-02-11T21:54:13.752Z,13.30
2023-02-11T21:56:44.964Z,12.32
2023-02-11T22:02:45.062Z,11.68
2023-02-11T22:05:33.979Z,11.38
2023-02-11T22:08:43.070Z,11.98
2023-02-11T22:14:50.734Z,11.60
2023-02-11T22:21:17.788Z,11.05
2023-02-11T22:24:23.656Z,11.77
2023-02-11T22:27:36.110Z,11.68
2023-02-11T22:33:32.198Z,13.50
2023-02-11T22:39:59.999Z,11.00
2023-02-11T22:49:02.715Z,9.80
2023-02-11T22:51:35.828Z,11.02
2023-02-11T22:54:45.130Z,10.25
2023-02-11T23:04:26.739Z,9.98
2023-02-11T23:16:42.101Z,11.95
2023-02-11T23:22:49.520Z,11.80
2023-02-11T23:32:17.063Z,10.27
2023-02-11T23:42:05.454Z,8.15
2023-02-11T23:44:41.165Z,7.97
2023-02-11T23:47:46.779Z,8.00
2023-02-11T23:50:35.907Z,9.43
2023-02-11T23:53:48.353Z,8.30
2023-02-11T23:56:38.024Z,7.85
